sensor_id;sensor_type;location;lat;lon;timestamp;P1;durP1;ratioP1;P2;durP2;ratioP2
75152;SDS011;63734;45.218;36.708;2023-04-06T00:02:16;3.55;;;1.10;;
75152;SDS011;63734;45.218;36.708;2023-04-06T00:04:42;2.55;;;0.90;;
75152;SDS011;63734;45.218;36.708;2023-04-06T00:07:07;1.17;;;0.63;;
75152;SDS011;63734;45.218;36.708;2023-04-06T00:09:33;2.85;;;1.00;;
75152;SDS011;63734;45.218;36.708;2023-04-06T00:11:59;2.55;;;0.77;;
75152;SDS011;63734;45.218;36.708;2023-04-06T00:14:26;0.88;;;0.70;;
75152;SDS011;63734;45.218;36.708;2023-04-06T00:16:51;3.10;;;0.93;;
75152;SDS011;63734;45.218;36.708;2023-04-06T00:19:17;2.42;;;0.93;;
75152;SDS011;63734;45.218;36.708;2023-04-06T00:21:43;1.15;;;0.95;;
75152;SDS011;63734;45.218;36.708;2023-04-06T00:24:09;5.05;;;1.17;;
75152;SDS011;63734;45.218;36.708;2023-04-06T00:26:35;3.60;;;0.73;;
75152;SDS011;63734;45.218;36.708;2023-04-06T00:29:01;7.55;;;0.98;;
75152;SDS011;63734;45.218;36.708;2023-04-06T00:31:28;3.05;;;0.82;;
75152;SDS011;63734;45.218;36.708;2023-04-06T00:33:54;4.47;;;1.23;;
75152;SDS011;63734;45.218;36.708;2023-04-06T00:36:20;4.00;;;1.08;;
75152;SDS011;63734;45.218;36.708;2023-04-06T00:38:46;2.72;;;1.23;;
75152;SDS011;63734;45.218;36.708;2023-04-06T00:41:12;1.88;;;0.70;;
75152;SDS011;63734;45.218;36.708;2023-04-06T00:43:39;2.65;;;0.85;;
75152;SDS011;63734;45.218;36.708;2023-04-06T00:46:04;0.50;;;0.50;;
75152;SDS011;63734;45.218;36.708;2023-04-06T00:48:31;1.88;;;0.70;;
75152;SDS011;63734;45.218;36.708;2023-04-06T00:50:58;2.67;;;0.50;;
75152;SDS011;63734;45.218;36.708;2023-04-06T00:53:24;4.50;;;0.90;;
75152;SDS011;63734;45.218;36.708;2023-04-06T00:55:52;1.95;;;0.70;;
75152;SDS011;63734;45.218;36.708;2023-04-06T00:58:19;0.55;;;0.55;;
75152;SDS011;63734;45.218;36.708;2023-04-06T01:00:51;3.70;;;0.73;;
75152;SDS011;63734;45.218;36.708;2023-04-06T01:03:19;1.42;;;0.52;;
75152;SDS011;63734;45.218;36.708;2023-04-06T01:05:46;1.95;;;0.47;;
75152;SDS011;63734;45.218;36.708;2023-04-06T01:08:22;0.57;;;0.32;;
75152;SDS011;63734;45.218;36.708;2023-04-06T01:10:52;3.40;;;1.08;;
75152;SDS011;63734;45.218;36.708;2023-04-06T01:13:23;1.08;;;0.50;;
75152;SDS011;63734;45.218;36.708;2023-04-06T01:15:53;0.28;;;0.28;;
75152;SDS011;63734;45.218;36.708;2023-04-06T01:18:42;1.17;;;0.35;;
75152;SDS011;63734;45.218;36.708;2023-04-06T01:21:22;5.40;;;0.68;;
75152;SDS011;63734;45.218;36.708;2023-04-06T01:24:03;2.80;;;0.60;;
75152;SDS011;63734;45.218;36.708;2023-04-06T01:26:41;0.73;;;0.60;;
75152;SDS011;63734;45.218;36.708;2023-04-06T01:29:10;1.77;;;0.47;;
75152;SDS011;63734;45.218;36.708;2023-04-06T01:31:37;1.92;;;0.50;;
75152;SDS011;63734;45.218;36.708;2023-04-06T01:34:04;1.77;;;0.52;;
75152;SDS011;63734;45.218;36.708;2023-04-06T01:36:31;5.10;;;0.50;;
75152;SDS011;63734;45.218;36.708;2023-04-06T01:39:08;1.35;;;0.60;;
75152;SDS011;63734;45.218;36.708;2023-04-06T01:41:36;1.67;;;0.50;;
75152;SDS011;63734;45.218;36.708;2023-04-06T01:44:02;3.78;;;0.70;;
75152;SDS011;63734;45.218;36.708;2023-04-06T01:46:29;3.63;;;0.68;;
75152;SDS011;63734;45.218;36.708;2023-04-06T01:48:56;2.85;;;0.85;;
75152;SDS011;63734;45.218;36.708;2023-04-06T01:51:34;5.05;;;1.00;;
75152;SDS011;63734;45.218;36.708;2023-04-06T01:54:02;1.13;;;0.50;;
75152;SDS011;63734;45.218;36.708;2023-04-06T01:56:41;1.48;;;0.50;;
75152;SDS011;63734;45.218;36.708;2023-04-06T01:59:24;3.35;;;0.60;;
75152;SDS011;63734;45.218;36.708;2023-04-06T02:01:51;2.80;;;0.60;;
75152;SDS011;63734;45.218;36.708;2023-04-06T02:04:17;1.98;;;0.50;;
75152;SDS011;63734;45.218;36.708;2023-04-06T02:06:45;1.05;;;0.40;;
75152;SDS011;63734;45.218;36.708;2023-04-06T02:09:13;2.35;;;0.60;;
75152;SDS011;63734;45.218;36.708;2023-04-06T02:11:40;1.33;;;0.40;;
75152;SDS011;63734;45.218;36.708;2023-04-06T02:14:06;3.72;;;0.70;;
75152;SDS011;63734;45.218;36.708;2023-04-06T02:16:37;5.45;;;0.75;;
75152;SDS011;63734;45.218;36.708;2023-04-06T02:19:03;1.92;;;0.68;;
75152;SDS011;63734;45.218;36.708;2023-04-06T02:21:29;4.32;;;0.65;;
75152;SDS011;63734;45.218;36.708;2023-04-06T02:23:55;0.70;;;0.45;;
75152;SDS011;63734;45.218;36.708;2023-04-06T02:26:21;4.03;;;0.80;;
75152;SDS011;63734;45.218;36.708;2023-04-06T02:28:47;1.33;;;0.60;;
75152;SDS011;63734;45.218;36.708;2023-04-06T02:31:13;1.55;;;0.52;;
75152;SDS011;63734;45.218;36.708;2023-04-06T02:33:41;0.63;;;0.32;;
75152;SDS011;63734;45.218;36.708;2023-04-06T02:36:09;1.02;;;0.65;;
75152;SDS011;63734;45.218;36.708;2023-04-06T02:38:35;0.80;;;0.43;;
75152;SDS011;63734;45.218;36.708;2023-04-06T02:41:02;3.22;;;0.50;;
75152;SDS011;63734;45.218;36.708;2023-04-06T02:43:28;3.35;;;0.82;;
75152;SDS011;63734;45.218;36.708;2023-04-06T02:46:03;3.42;;;0.90;;
75152;SDS011;63734;45.218;36.708;2023-04-06T02:48:32;3.17;;;0.43;;
75152;SDS011;63734;45.218;36.708;2023-04-06T02:51:01;2.97;;;0.60;;
75152;SDS011;63734;45.218;36.708;2023-04-06T02:53:27;3.05;;;0.88;;
75152;SDS011;63734;45.218;36.708;2023-04-06T02:55:53;1.88;;;0.70;;
75152;SDS011;63734;45.218;36.708;2023-04-06T02:58:19;3.60;;;1.00;;
75152;SDS011;63734;45.218;36.708;2023-04-06T03:00:50;4.88;;;1.00;;
75152;SDS011;63734;45.218;36.708;2023-04-06T03:03:16;3.50;;;0.70;;
75152;SDS011;63734;45.218;36.708;2023-04-06T03:05:44;3.17;;;0.90;;
75152;SDS011;63734;45.218;36.708;2023-04-06T03:08:10;3.33;;;1.00;;
75152;SDS011;63734;45.218;36.708;2023-04-06T03:13:10;1.67;;;0.40;;
75152;SDS011;63734;45.218;36.708;2023-04-06T03:15:51;5.18;;;0.82;;
75152;SDS011;63734;45.218;36.708;2023-04-06T03:18:23;1.17;;;0.60;;
75152;SDS011;63734;45.218;36.708;2023-04-06T03:20:51;3.17;;;0.80;;
75152;SDS011;63734;45.218;36.708;2023-04-06T03:23:24;3.50;;;0.80;;
75152;SDS011;63734;45.218;36.708;2023-04-06T03:25:55;1.48;;;0.63;;
75152;SDS011;63734;45.218;36.708;2023-04-06T03:28:21;5.05;;;0.88;;
75152;SDS011;63734;45.218;36.708;2023-04-06T03:30:59;6.25;;;0.77;;
75152;SDS011;63734;45.218;36.708;2023-04-06T03:34:03;5.47;;;0.90;;
75152;SDS011;63734;45.218;36.708;2023-04-06T03:36:33;6.15;;;0.95;;
75152;SDS011;63734;45.218;36.708;2023-04-06T03:39:02;4.43;;;0.70;;
75152;SDS011;63734;45.218;36.708;2023-04-06T03:41:32;5.65;;;1.23;;
75152;SDS011;63734;45.218;36.708;2023-04-06T03:44:07;2.13;;;1.00;;
75152;SDS011;63734;45.218;36.708;2023-04-06T03:46:33;3.22;;;0.75;;
75152;SDS011;63734;45.218;36.708;2023-04-06T03:48:59;4.68;;;1.23;;
75152;SDS011;63734;45.218;36.708;2023-04-06T03:51:26;4.53;;;0.60;;
75152;SDS011;63734;45.218;36.708;2023-04-06T03:53:52;3.92;;;0.90;;
75152;SDS011;63734;45.218;36.708;2023-04-06T03:56:18;2.58;;;0.70;;
75152;SDS011;63734;45.218;36.708;2023-04-06T03:58:45;1.67;;;0.60;;
75152;SDS011;63734;45.218;36.708;2023-04-06T04:01:16;2.17;;;0.80;;
75152;SDS011;63734;45.218;36.708;2023-04-06T04:03:43;4.20;;;0.77;;
75152;SDS011;63734;45.218;36.708;2023-04-06T04:06:09;3.20;;;0.70;;
75152;SDS011;63734;45.218;36.708;2023-04-06T04:08:35;2.17;;;0.95;;
75152;SDS011;63734;45.218;36.708;2023-04-06T04:11:01;3.17;;;0.70;;
75152;SDS011;63734;45.218;36.708;2023-04-06T04:13:28;3.42;;;0.70;;
75152;SDS011;63734;45.218;36.708;2023-04-06T04:15:54;3.20;;;0.75;;
75152;SDS011;63734;45.218;36.708;2023-04-06T04:18:20;3.97;;;0.70;;
75152;SDS011;63734;45.218;36.708;2023-04-06T04:20:46;0.88;;;0.80;;
75152;SDS011;63734;45.218;36.708;2023-04-06T04:23:12;2.35;;;0.95;;
75152;SDS011;63734;45.218;36.708;2023-04-06T04:25:38;1.92;;;0.68;;
75152;SDS011;63734;45.218;36.708;2023-04-06T04:28:05;4.35;;;1.17;;
75152;SDS011;63734;45.218;36.708;2023-04-06T04:30:31;2.38;;;1.00;;
75152;SDS011;63734;45.218;36.708;2023-04-06T04:32:57;5.30;;;1.45;;
75152;SDS011;63734;45.218;36.708;2023-04-06T04:35:23;5.22;;;0.80;;
75152;SDS011;63734;45.218;36.708;2023-04-06T04:37:50;1.73;;;0.68;;
75152;SDS011;63734;45.218;36.708;2023-04-06T04:40:16;1.30;;;0.60;;
75152;SDS011;63734;45.218;36.708;2023-04-06T04:42:53;2.90;;;0.93;;
75152;SDS011;63734;45.218;36.708;2023-04-06T04:45:29;4.82;;;0.77;;
75152;SDS011;63734;45.218;36.708;2023-04-06T04:47:58;4.65;;;1.02;;
75152;SDS011;63734;45.218;36.708;2023-04-06T04:50:30;1.98;;;0.68;;
75152;SDS011;63734;45.218;36.708;2023-04-06T04:52:58;3.70;;;0.95;;
75152;SDS011;63734;45.218;36.708;2023-04-06T04:55:25;2.50;;;0.60;;
75152;SDS011;63734;45.218;36.708;2023-04-06T04:57:54;6.07;;;0.80;;
75152;SDS011;63734;45.218;36.708;2023-04-06T05:00:26;0.95;;;0.52;;
75152;SDS011;63734;45.218;36.708;2023-04-06T05:02:56;2.42;;;0.80;;
75152;SDS011;63734;45.218;36.708;2023-04-06T05:05:28;3.30;;;0.50;;
75152;SDS011;63734;45.218;36.708;2023-04-06T05:07:54;2.75;;;0.57;;
75152;SDS011;63734;45.218;36.708;2023-04-06T05:10:39;2.38;;;0.52;;
75152;SDS011;63734;45.218;36.708;2023-04-06T05:13:05;1.38;;;0.52;;
75152;SDS011;63734;45.218;36.708;2023-04-06T05:15:31;5.55;;;0.60;;
75152;SDS011;63734;45.218;36.708;2023-04-06T05:18:06;0.95;;;0.50;;
75152;SDS011;63734;45.218;36.708;2023-04-06T05:20:34;1.90;;;0.60;;
75152;SDS011;63734;45.218;36.708;2023-04-06T05:23:01;5.82;;;0.65;;
75152;SDS011;63734;45.218;36.708;2023-04-06T05:25:29;1.25;;;0.43;;
75152;SDS011;63734;45.218;36.708;2023-04-06T05:28:01;3.35;;;0.70;;
75152;SDS011;63734;45.218;36.708;2023-04-06T05:30:33;3.40;;;0.50;;
75152;SDS011;63734;45.218;36.708;2023-04-06T05:33:01;1.83;;;0.50;;
75152;SDS011;63734;45.218;36.708;2023-04-06T05:35:36;2.35;;;0.70;;
75152;SDS011;63734;45.218;36.708;2023-04-06T05:38:08;2.03;;;0.50;;
75152;SDS011;63734;45.218;36.708;2023-04-06T05:40:36;1.77;;;0.85;;
75152;SDS011;63734;45.218;36.708;2023-04-06T05:43:10;5.72;;;0.77;;
75152;SDS011;63734;45.218;36.708;2023-04-06T05:45:40;5.97;;;0.75;;
75152;SDS011;63734;45.218;36.708;2023-04-06T05:48:06;0.88;;;0.68;;
75152;SDS011;63734;45.218;36.708;2023-04-06T05:50:32;3.60;;;0.75;;
75152;SDS011;63734;45.218;36.708;2023-04-06T05:52:59;1.77;;;0.60;;
75152;SDS011;63734;45.218;36.708;2023-04-06T05:55:30;4.43;;;0.75;;
75152;SDS011;63734;45.218;36.708;2023-04-06T05:58:18;3.13;;;0.50;;
75152;SDS011;63734;45.218;36.708;2023-04-06T06:00:46;8.90;;;0.70;;
75152;SDS011;63734;45.218;36.708;2023-04-06T06:03:14;0.90;;;0.60;;
75152;SDS011;63734;45.218;36.708;2023-04-06T06:05:45;0.93;;;0.60;;
75152;SDS011;63734;45.218;36.708;2023-04-06T06:08:17;1.50;;;0.80;;
75152;SDS011;63734;45.218;36.708;2023-04-06T06:10:46;0.90;;;0.47;;
75152;SDS011;63734;45.218;36.708;2023-04-06T06:13:12;2.88;;;0.60;;
75152;SDS011;63734;45.218;36.708;2023-04-06T06:15:38;3.30;;;0.88;;
75152;SDS011;63734;45.218;36.708;2023-04-06T06:18:05;1.33;;;0.50;;
75152;SDS011;63734;45.218;36.708;2023-04-06T06:20:31;3.72;;;1.17;;
75152;SDS011;63734;45.218;36.708;2023-04-06T06:23:01;3.45;;;0.88;;
75152;SDS011;63734;45.218;36.708;2023-04-06T06:25:37;1.17;;;0.70;;
75152;SDS011;63734;45.218;36.708;2023-04-06T06:28:03;4.30;;;0.75;;
75152;SDS011;63734;45.218;36.708;2023-04-06T06:30:33;3.63;;;1.23;;
75152;SDS011;63734;45.218;36.708;2023-04-06T06:32:59;4.53;;;1.10;;
75152;SDS011;63734;45.218;36.708;2023-04-06T06:35:27;1.60;;;1.00;;
75152;SDS011;63734;45.218;36.708;2023-04-06T06:37:53;4.97;;;0.95;;
75152;SDS011;63734;45.218;36.708;2023-04-06T06:40:23;4.38;;;1.50;;
75152;SDS011;63734;45.218;36.708;2023-04-06T06:42:53;3.35;;;1.27;;
75152;SDS011;63734;45.218;36.708;2023-04-06T06:45:37;5.50;;;1.23;;
75152;SDS011;63734;45.218;36.708;2023-04-06T06:48:04;3.00;;;1.40;;
75152;SDS011;63734;45.218;36.708;2023-04-06T06:50:30;4.57;;;1.83;;
75152;SDS011;63734;45.218;36.708;2023-04-06T06:52:56;8.65;;;1.45;;
75152;SDS011;63734;45.218;36.708;2023-04-06T06:55:22;2.38;;;1.40;;
75152;SDS011;63734;45.218;36.708;2023-04-06T06:57:48;3.15;;;1.75;;
75152;SDS011;63734;45.218;36.708;2023-04-06T07:00:15;3.28;;;1.27;;
75152;SDS011;63734;45.218;36.708;2023-04-06T07:02:43;5.13;;;1.30;;
75152;SDS011;63734;45.218;36.708;2023-04-06T07:05:09;1.60;;;1.20;;
75152;SDS011;63734;45.218;36.708;2023-04-06T07:07:35;2.50;;;1.33;;
75152;SDS011;63734;45.218;36.708;2023-04-06T07:10:01;3.50;;;1.30;;
75152;SDS011;63734;45.218;36.708;2023-04-06T07:12:27;4.53;;;1.30;;
75152;SDS011;63734;45.218;36.708;2023-04-06T07:14:53;5.25;;;1.60;;
75152;SDS011;63734;45.218;36.708;2023-04-06T07:17:19;5.57;;;1.85;;
75152;SDS011;63734;45.218;36.708;2023-04-06T07:19:46;2.70;;;1.40;;
75152;SDS011;63734;45.218;36.708;2023-04-06T07:22:12;3.67;;;2.13;;
75152;SDS011;63734;45.218;36.708;2023-04-06T07:24:37;6.18;;;1.65;;
75152;SDS011;63734;45.218;36.708;2023-04-06T07:27:03;3.78;;;1.50;;
75152;SDS011;63734;45.218;36.708;2023-04-06T07:29:30;4.63;;;1.35;;
75152;SDS011;63734;45.218;36.708;2023-04-06T07:31:56;3.63;;;1.38;;
75152;SDS011;63734;45.218;36.708;2023-04-06T07:34:22;3.10;;;1.40;;
75152;SDS011;63734;45.218;36.708;2023-04-06T07:36:48;5.05;;;1.70;;
75152;SDS011;63734;45.218;36.708;2023-04-06T07:39:15;4.65;;;1.60;;
75152;SDS011;63734;45.218;36.708;2023-04-06T07:41:41;6.40;;;1.63;;
75152;SDS011;63734;45.218;36.708;2023-04-06T07:44:07;4.45;;;1.75;;
75152;SDS011;63734;45.218;36.708;2023-04-06T07:46:33;7.53;;;1.52;;
75152;SDS011;63734;45.218;36.708;2023-04-06T07:49:01;6.70;;;1.70;;
75152;SDS011;63734;45.218;36.708;2023-04-06T07:51:30;8.82;;;1.85;;
75152;SDS011;63734;45.218;36.708;2023-04-06T07:53:56;4.97;;;1.70;;
75152;SDS011;63734;45.218;36.708;2023-04-06T07:56:22;3.58;;;1.73;;
75152;SDS011;63734;45.218;36.708;2023-04-06T07:58:48;13.70;;;5.70;;
75152;SDS011;63734;45.218;36.708;2023-04-06T08:01:14;6.88;;;2.22;;
75152;SDS011;63734;45.218;36.708;2023-04-06T08:03:40;8.48;;;2.47;;
75152;SDS011;63734;45.218;36.708;2023-04-06T08:06:06;13.32;;;1.90;;
75152;SDS011;63734;45.218;36.708;2023-04-06T08:08:32;4.45;;;1.77;;
75152;SDS011;63734;45.218;36.708;2023-04-06T08:10:58;3.22;;;1.60;;
75152;SDS011;63734;45.218;36.708;2023-04-06T08:13:24;10.15;;;1.85;;
75152;SDS011;63734;45.218;36.708;2023-04-06T08:15:50;5.22;;;1.55;;
75152;SDS011;63734;45.218;36.708;2023-04-06T08:18:16;3.85;;;1.88;;
75152;SDS011;63734;45.218;36.708;2023-04-06T08:20:42;3.25;;;2.10;;
75152;SDS011;63734;45.218;36.708;2023-04-06T08:23:08;6.97;;;1.67;;
75152;SDS011;63734;45.218;36.708;2023-04-06T08:25:35;3.30;;;1.50;;
75152;SDS011;63734;45.218;36.708;2023-04-06T08:28:01;4.55;;;1.52;;
75152;SDS011;63734;45.218;36.708;2023-04-06T08:30:28;4.38;;;1.55;;
75152;SDS011;63734;45.218;36.708;2023-04-06T08:32:55;6.32;;;1.80;;
75152;SDS011;63734;45.218;36.708;2023-04-06T08:35:21;4.97;;;1.60;;
75152;SDS011;63734;45.218;36.708;2023-04-06T08:37:47;4.90;;;1.70;;
75152;SDS011;63734;45.218;36.708;2023-04-06T08:40:13;8.05;;;1.77;;
75152;SDS011;63734;45.218;36.708;2023-04-06T08:42:40;5.72;;;1.98;;
75152;SDS011;63734;45.218;36.708;2023-04-06T08:45:09;8.55;;;2.20;;
75152;SDS011;63734;45.218;36.708;2023-04-06T08:47:36;4.32;;;1.67;;
75152;SDS011;63734;45.218;36.708;2023-04-06T08:50:05;5.90;;;1.70;;
75152;SDS011;63734;45.218;36.708;2023-04-06T08:52:33;4.43;;;1.42;;
75152;SDS011;63734;45.218;36.708;2023-04-06T08:54:59;4.88;;;1.90;;
75152;SDS011;63734;45.218;36.708;2023-04-06T08:57:26;4.20;;;2.05;;
75152;SDS011;63734;45.218;36.708;2023-04-06T08:59:52;2.72;;;1.42;;
75152;SDS011;63734;45.218;36.708;2023-04-06T09:02:19;3.53;;;1.50;;
75152;SDS011;63734;45.218;36.708;2023-04-06T09:04:46;4.28;;;1.60;;
75152;SDS011;63734;45.218;36.708;2023-04-06T09:07:15;6.00;;;2.30;;
75152;SDS011;63734;45.218;36.708;2023-04-06T09:09:41;4.82;;;1.77;;
75152;SDS011;63734;45.218;36.708;2023-04-06T09:12:29;6.63;;;1.23;;
75152;SDS011;63734;45.218;36.708;2023-04-06T09:14:56;3.83;;;1.40;;
75152;SDS011;63734;45.218;36.708;2023-04-06T09:17:23;2.35;;;1.40;;
75152;SDS011;63734;45.218;36.708;2023-04-06T09:19:51;2.47;;;1.40;;
75152;SDS011;63734;45.218;36.708;2023-04-06T09:22:17;6.35;;;1.70;;
75152;SDS011;63734;45.218;36.708;2023-04-06T09:24:44;3.33;;;1.55;;
75152;SDS011;63734;45.218;36.708;2023-04-06T09:27:10;5.15;;;1.80;;
75152;SDS011;63734;45.218;36.708;2023-04-06T09:29:37;8.90;;;2.08;;
75152;SDS011;63734;45.218;36.708;2023-04-06T09:32:04;7.45;;;1.42;;
75152;SDS011;63734;45.218;36.708;2023-04-06T09:34:31;3.78;;;1.40;;
75152;SDS011;63734;45.218;36.708;2023-04-06T09:36:57;3.55;;;1.77;;
75152;SDS011;63734;45.218;36.708;2023-04-06T09:39:23;5.32;;;1.50;;
75152;SDS011;63734;45.218;36.708;2023-04-06T09:41:51;7.15;;;1.65;;
75152;SDS011;63734;45.218;36.708;2023-04-06T09:44:18;5.53;;;1.70;;
75152;SDS011;63734;45.218;36.708;2023-04-06T09:46:45;6.00;;;1.95;;
75152;SDS011;63734;45.218;36.708;2023-04-06T09:49:12;2.72;;;1.40;;
75152;SDS011;63734;45.218;36.708;2023-04-06T09:51:40;4.18;;;1.80;;
75152;SDS011;63734;45.218;36.708;2023-04-06T09:54:09;9.18;;;1.75;;
75152;SDS011;63734;45.218;36.708;2023-04-06T09:56:39;3.15;;;1.40;;
75152;SDS011;63734;45.218;36.708;2023-04-06T09:59:14;3.25;;;1.42;;
75152;SDS011;63734;45.218;36.708;2023-04-06T10:01:46;6.65;;;1.95;;
75152;SDS011;63734;45.218;36.708;2023-04-06T10:06:59;3.17;;;1.63;;
75152;SDS011;63734;45.218;36.708;2023-04-06T10:09:28;3.88;;;1.63;;
75152;SDS011;63734;45.218;36.708;2023-04-06T10:12:02;4.40;;;1.55;;
75152;SDS011;63734;45.218;36.708;2023-04-06T10:14:29;2.35;;;1.42;;
75152;SDS011;63734;45.218;36.708;2023-04-06T10:16:56;7.78;;;2.50;;
75152;SDS011;63734;45.218;36.708;2023-04-06T10:19:25;4.03;;;1.65;;
75152;SDS011;63734;45.218;36.708;2023-04-06T10:21:58;6.45;;;1.75;;
75152;SDS011;63734;45.218;36.708;2023-04-06T10:24:30;1.60;;;1.00;;
75152;SDS011;63734;45.218;36.708;2023-04-06T10:27:06;1.35;;;0.65;;
75152;SDS011;63734;45.218;36.708;2023-04-06T10:29:45;0.95;;;0.35;;
75152;SDS011;63734;45.218;36.708;2023-04-06T10:32:14;0.90;;;0.47;;
75152;SDS011;63734;45.218;36.708;2023-04-06T10:34:40;0.70;;;0.70;;
75152;SDS011;63734;45.218;36.708;2023-04-06T10:37:15;0.50;;;0.50;;
75152;SDS011;63734;45.218;36.708;2023-04-06T10:39:53;1.55;;;0.93;;
75152;SDS011;63734;45.218;36.708;2023-04-06T10:42:25;0.98;;;0.68;;
75152;SDS011;63734;45.218;36.708;2023-04-06T10:45:01;1.50;;;0.85;;
75152;SDS011;63734;45.218;36.708;2023-04-06T10:47:43;1.42;;;0.60;;
75152;SDS011;63734;45.218;36.708;2023-04-06T10:50:16;1.85;;;0.93;;
75152;SDS011;63734;45.218;36.708;2023-04-06T10:52:45;1.13;;;1.00;;
75152;SDS011;63734;45.218;36.708;2023-04-06T10:55:16;0.95;;;0.80;;
75152;SDS011;63734;45.218;36.708;2023-04-06T10:57:46;1.63;;;0.90;;
75152;SDS011;63734;45.218;36.708;2023-04-06T11:00:12;2.15;;;1.20;;
75152;SDS011;63734;45.218;36.708;2023-04-06T11:02:38;0.80;;;0.80;;
75152;SDS011;63734;45.218;36.708;2023-04-06T11:05:04;1.25;;;1.00;;
75152;SDS011;63734;45.218;36.708;2023-04-06T11:07:31;2.80;;;1.20;;
75152;SDS011;63734;45.218;36.708;2023-04-06T11:09:57;2.72;;;1.30;;
75152;SDS011;63734;45.218;36.708;2023-04-06T11:12:24;1.30;;;1.15;;
75152;SDS011;63734;45.218;36.708;2023-04-06T11:15:01;2.90;;;1.25;;
75152;SDS011;63734;45.218;36.708;2023-04-06T11:17:32;2.47;;;1.45;;
75152;SDS011;63734;45.218;36.708;2023-04-06T11:20:02;1.95;;;1.30;;
75152;SDS011;63734;45.218;36.708;2023-04-06T11:22:30;3.13;;;2.00;;
75152;SDS011;63734;45.218;36.708;2023-04-06T11:25:05;6.28;;;2.05;;
75152;SDS011;63734;45.218;36.708;2023-04-06T11:27:33;3.60;;;1.65;;
75152;SDS011;63734;45.218;36.708;2023-04-06T11:30:00;4.13;;;1.85;;
75152;SDS011;63734;45.218;36.708;2023-04-06T11:32:26;3.40;;;2.20;;
75152;SDS011;63734;45.218;36.708;2023-04-06T11:34:53;2.70;;;2.08;;
75152;SDS011;63734;45.218;36.708;2023-04-06T11:37:19;2.35;;;1.45;;
75152;SDS011;63734;45.218;36.708;2023-04-06T11:39:52;1.63;;;1.30;;
75152;SDS011;63734;45.218;36.708;2023-04-06T11:42:29;4.00;;;1.77;;
75152;SDS011;63734;45.218;36.708;2023-04-06T11:44:56;1.92;;;1.35;;
75152;SDS011;63734;45.218;36.708;2023-04-06T11:47:29;4.25;;;2.08;;
75152;SDS011;63734;45.218;36.708;2023-04-06T11:50:09;1.63;;;1.25;;
75152;SDS011;63734;45.218;36.708;2023-04-06T11:52:36;2.65;;;1.63;;
75152;SDS011;63734;45.218;36.708;2023-04-06T11:55:13;3.38;;;1.90;;
75152;SDS011;63734;45.218;36.708;2023-04-06T11:57:41;3.58;;;1.92;;
75152;SDS011;63734;45.218;36.708;2023-04-06T12:00:08;4.55;;;1.80;;
75152;SDS011;63734;45.218;36.708;2023-04-06T12:02:38;1.75;;;1.15;;
75152;SDS011;63734;45.218;36.708;2023-04-06T12:05:05;2.22;;;1.50;;
75152;SDS011;63734;45.218;36.708;2023-04-06T12:07:32;2.40;;;1.63;;
75152;SDS011;63734;45.218;36.708;2023-04-06T12:09:58;4.22;;;2.00;;
75152;SDS011;63734;45.218;36.708;2023-04-06T12:12:26;6.13;;;1.70;;
75152;SDS011;63734;45.218;36.708;2023-04-06T12:14:52;1.83;;;1.40;;
75152;SDS011;63734;45.218;36.708;2023-04-06T12:17:18;4.47;;;1.90;;
75152;SDS011;63734;45.218;36.708;2023-04-06T12:19:45;5.53;;;2.05;;
75152;SDS011;63734;45.218;36.708;2023-04-06T12:22:11;4.85;;;1.95;;
75152;SDS011;63734;45.218;36.708;2023-04-06T12:24:38;3.20;;;1.60;;
75152;SDS011;63734;45.218;36.708;2023-04-06T12:27:04;5.78;;;2.22;;
75152;SDS011;63734;45.218;36.708;2023-04-06T12:29:30;3.80;;;2.13;;
75152;SDS011;63734;45.218;36.708;2023-04-06T12:31:56;5.03;;;2.47;;
75152;SDS011;63734;45.218;36.708;2023-04-06T12:34:22;3.80;;;1.33;;
75152;SDS011;63734;45.218;36.708;2023-04-06T12:36:48;4.25;;;1.92;;
75152;SDS011;63734;45.218;36.708;2023-04-06T12:39:14;2.97;;;1.55;;
75152;SDS011;63734;45.218;36.708;2023-04-06T12:41:41;5.63;;;2.33;;
75152;SDS011;63734;45.218;36.708;2023-04-06T12:44:07;3.08;;;1.85;;
75152;SDS011;63734;45.218;36.708;2023-04-06T12:46:32;4.95;;;2.35;;
75152;SDS011;63734;45.218;36.708;2023-04-06T12:48:58;4.20;;;1.80;;
75152;SDS011;63734;45.218;36.708;2023-04-06T12:51:27;2.92;;;2.10;;
75152;SDS011;63734;45.218;36.708;2023-04-06T12:53:53;5.22;;;2.10;;
75152;SDS011;63734;45.218;36.708;2023-04-06T12:56:20;4.88;;;2.25;;
75152;SDS011;63734;45.218;36.708;2023-04-06T12:58:50;4.55;;;2.42;;
75152;SDS011;63734;45.218;36.708;2023-04-06T13:01:17;6.20;;;2.60;;
75152;SDS011;63734;45.218;36.708;2023-04-06T13:03:43;2.88;;;1.67;;
75152;SDS011;63734;45.218;36.708;2023-04-06T13:06:10;3.92;;;1.83;;
75152;SDS011;63734;45.218;36.708;2023-04-06T13:08:37;3.28;;;2.10;;
75152;SDS011;63734;45.218;36.708;2023-04-06T13:11:03;5.85;;;2.17;;
75152;SDS011;63734;45.218;36.708;2023-04-06T13:13:30;2.30;;;2.00;;
75152;SDS011;63734;45.218;36.708;2023-04-06T13:16:01;5.78;;;2.05;;
75152;SDS011;63734;45.218;36.708;2023-04-06T13:18:29;3.10;;;1.65;;
75152;SDS011;63734;45.218;36.708;2023-04-06T13:20:56;4.60;;;2.03;;
75152;SDS011;63734;45.218;36.708;2023-04-06T13:23:23;3.95;;;1.88;;
75152;SDS011;63734;45.218;36.708;2023-04-06T13:26:02;3.13;;;1.80;;
75152;SDS011;63734;45.218;36.708;2023-04-06T13:28:32;5.57;;;2.38;;
75152;SDS011;63734;45.218;36.708;2023-04-06T13:30:59;3.45;;;1.90;;
75152;SDS011;63734;45.218;36.708;2023-04-06T13:33:27;8.38;;;2.42;;
75152;SDS011;63734;45.218;36.708;2023-04-06T13:35:53;3.45;;;2.05;;
75152;SDS011;63734;45.218;36.708;2023-04-06T13:38:19;5.88;;;2.20;;
75152;SDS011;63734;45.218;36.708;2023-04-06T13:40:46;3.35;;;1.60;;
75152;SDS011;63734;45.218;36.708;2023-04-06T13:43:12;3.70;;;1.83;;
75152;SDS011;63734;45.218;36.708;2023-04-06T13:45:38;4.53;;;2.00;;
75152;SDS011;63734;45.218;36.708;2023-04-06T13:48:04;1.80;;;1.50;;
75152;SDS011;63734;45.218;36.708;2023-04-06T13:50:30;2.85;;;2.20;;
75152;SDS011;63734;45.218;36.708;2023-04-06T13:52:57;5.68;;;2.30;;
75152;SDS011;63734;45.218;36.708;2023-04-06T13:55:23;2.88;;;2.03;;
75152;SDS011;63734;45.218;36.708;2023-04-06T13:57:49;3.28;;;1.88;;
75152;SDS011;63734;45.218;36.708;2023-04-06T14:00:16;3.13;;;2.28;;
75152;SDS011;63734;45.218;36.708;2023-04-06T14:02:43;3.50;;;2.17;;
75152;SDS011;63734;45.218;36.708;2023-04-06T14:05:09;5.20;;;2.65;;
75152;SDS011;63734;45.218;36.708;2023-04-06T14:07:35;3.13;;;1.85;;
75152;SDS011;63734;45.218;36.708;2023-04-06T14:10:02;4.00;;;1.85;;
75152;SDS011;63734;45.218;36.708;2023-04-06T14:12:28;2.95;;;1.50;;
75152;SDS011;63734;45.218;36.708;2023-04-06T14:14:54;3.28;;;1.75;;
75152;SDS011;63734;45.218;36.708;2023-04-06T14:17:20;4.35;;;1.92;;
75152;SDS011;63734;45.218;36.708;2023-04-06T14:19:47;3.20;;;1.85;;
75152;SDS011;63734;45.218;36.708;2023-04-06T14:22:14;2.30;;;1.50;;
75152;SDS011;63734;45.218;36.708;2023-04-06T14:24:40;4.50;;;1.67;;
75152;SDS011;63734;45.218;36.708;2023-04-06T14:27:06;1.60;;;1.50;;
75152;SDS011;63734;45.218;36.708;2023-04-06T14:29:32;3.03;;;1.55;;
75152;SDS011;63734;45.218;36.708;2023-04-06T14:31:58;3.65;;;1.65;;
75152;SDS011;63734;45.218;36.708;2023-04-06T14:34:27;3.05;;;1.70;;
75152;SDS011;63734;45.218;36.708;2023-04-06T14:36:53;3.65;;;1.90;;
75152;SDS011;63734;45.218;36.708;2023-04-06T14:39:19;3.97;;;1.40;;
75152;SDS011;63734;45.218;36.708;2023-04-06T14:41:45;2.55;;;1.50;;
75152;SDS011;63734;45.218;36.708;2023-04-06T14:44:13;4.22;;;1.65;;
75152;SDS011;63734;45.218;36.708;2023-04-06T14:46:42;2.47;;;1.17;;